sensor_id;sensor_type;location;lat;lon;timestamp;pressure;altitude;pressure_sealevel;temperature;humidity
50710;BME280;37033;49.994;21.992;2023-10-19T00:00:01;98883.95;;;1.53;83.70
50710;BME280;37033;49.994;21.992;2023-10-19T00:03:08;98883.19;;;1.50;83.61
50710;BME280;37033;49.994;21.992;2023-10-19T00:05:40;98879.44;;;1.49;83.55
50710;BME280;37033;49.994;21.992;2023-10-19T00:08:10;98876.28;;;1.46;83.40
50710;BME280;37033;49.994;21.992;2023-10-19T00:10:47;98873.89;;;1.42;83.36
50710;BME280;37033;49.994;21.992;2023-10-19T00:13:23;98870.07;;;1.37;83.08
50710;BME280;37033;49.994;21.992;2023-10-19T00:15:54;98863.91;;;1.32;83.08
50710;BME280;37033;49.994;21.992;2023-10-19T00:18:26;98863.54;;;1.28;83.00
50710;BME280;37033;49.994;21.992;2023-10-19T00:21:00;98861.33;;;1.23;82.99
50710;BME280;37033;49.994;21.992;2023-10-19T00:23:40;98857.06;;;1.17;82.92
50710;BME280;37033;49.994;21.992;2023-10-19T00:26:12;98848.05;;;1.12;82.97
50710;BME280;37033;49.994;21.992;2023-10-19T00:28:45;98847.84;;;1.05;82.64
50710;BME280;37033;49.994;21.992;2023-10-19T00:31:19;98844.52;;;0.99;82.69
50710;BME280;37033;49.994;21.992;2023-10-19T00:33:51;98843.54;;;0.94;82.70
50710;BME280;37033;49.994;21.992;2023-10-19T00:36:22;98838.60;;;0.88;82.83
50710;BME280;37033;49.994;21.992;2023-10-19T00:38:54;98836.72;;;0.81;82.84
50710;BME280;37033;49.994;21.992;2023-10-19T00:41:27;98832.85;;;0.77;82.83
50710;BME280;37033;49.994;21.992;2023-10-19T00:43:59;98829.71;;;0.72;82.86
50710;BME280;37033;49.994;21.992;2023-10-19T00:46:36;98826.27;;;0.68;82.96
50710;BME280;37033;49.994;21.992;2023-10-19T00:49:13;98822.07;;;0.63;82.94
50710;BME280;37033;49.994;21.992;2023-10-19T00:51:47;98822.15;;;0.59;83.15
50710;BME280;37033;49.994;21.992;2023-10-19T00:54:27;98817.59;;;0.56;83.13
50710;BME280;37033;49.994;21.992;2023-10-19T00:57:10;98814.89;;;0.52;83.03
50710;BME280;37033;49.994;21.992;2023-10-19T00:59:42;98811.31;;;0.48;83.15
50710;BME280;37033;49.994;21.992;2023-10-19T01:02:17;98805.45;;;0.46;83.16
50710;BME280;37033;49.994;21.992;2023-10-19T01:04:52;98800.32;;;0.43;83.06
50710;BME280;37033;49.994;21.992;2023-10-19T01:07:29;98793.33;;;0.40;83.06
50710;BME280;37033;49.994;21.992;2023-10-19T01:10:02;98789.63;;;0.35;83.04
50710;BME280;37033;49.994;21.992;2023-10-19T01:12:35;98788.69;;;0.32;83.08
50710;BME280;37033;49.994;21.992;2023-10-19T01:15:10;98782.70;;;0.30;83.13
50710;BME280;37033;49.994;21.992;2023-10-19T01:17:44;98778.70;;;0.29;83.26
50710;BME280;37033;49.994;21.992;2023-10-19T01:20:16;98773.06;;;0.28;83.40
50710;BME280;37033;49.994;21.992;2023-10-19T01:22:53;98774.34;;;0.28;83.62
50710;BME280;37033;49.994;21.992;2023-10-19T01:25:43;98772.41;;;0.29;83.64
50710;BME280;37033;49.994;21.992;2023-10-19T01:28:19;98772.17;;;0.30;83.74
50710;BME280;37033;49.994;21.992;2023-10-19T01:30:54;98766.73;;;0.29;83.57
50710;BME280;37033;49.994;21.992;2023-10-19T01:33:25;98767.40;;;0.30;83.66
50710;BME280;37033;49.994;21.992;2023-10-19T01:35:57;98762.52;;;0.30;83.67
50710;BME280;37033;49.994;21.992;2023-10-19T01:38:54;98764.52;;;0.30;83.58
50710;BME280;37033;49.994;21.992;2023-10-19T01:41:29;98764.10;;;0.29;83.70
50710;BME280;37033;49.994;21.992;2023-10-19T01:44:01;98763.59;;;0.27;83.64
50710;BME280;37033;49.994;21.992;2023-10-19T01:46:36;98759.52;;;0.26;83.55
50710;BME280;37033;49.994;21.992;2023-10-19T01:49:07;98755.30;;;0.24;83.59
50710;BME280;37033;49.994;21.992;2023-10-19T01:51:38;98754.52;;;0.23;83.87
50710;BME280;37033;49.994;21.992;2023-10-19T01:54:09;98748.73;;;0.22;83.70
50710;BME280;37033;49.994;21.992;2023-10-19T01:56:40;98744.95;;;0.21;83.65
50710;BME280;37033;49.994;21.992;2023-10-19T01:59:13;98741.92;;;0.19;83.71
50710;BME280;37033;49.994;21.992;2023-10-19T02:01:45;98737.10;;;0.18;83.62
50710;BME280;37033;49.994;21.992;2023-10-19T02:04:18;98730.66;;;0.15;83.59
50710;BME280;37033;49.994;21.992;2023-10-19T02:06:51;98726.41;;;0.12;83.74
50710;BME280;37033;49.994;21.992;2023-10-19T02:09:22;98722.92;;;0.10;83.64
50710;BME280;37033;49.994;21.992;2023-10-19T02:11:56;98717.11;;;0.08;83.74
50710;BME280;37033;49.994;21.992;2023-10-19T02:14:28;98713.63;;;0.06;83.75
50710;BME280;37033;49.994;21.992;2023-10-19T02:17:00;98709.72;;;0.05;83.64
50710;BME280;37033;49.994;21.992;2023-10-19T02:19:33;98706.12;;;0.04;83.70
50710;BME280;37033;49.994;21.992;2023-10-19T02:22:04;98702.34;;;0.03;84.03
50710;BME280;37033;49.994;21.992;2023-10-19T02:24:37;98699.70;;;0.02;84.29
50710;BME280;37033;49.994;21.992;2023-10-19T02:27:08;98698.64;;;0.04;84.37
50710;BME280;37033;49.994;21.992;2023-10-19T02:29:39;98699.07;;;0.05;84.39
50710;BME280;37033;49.994;21.992;2023-10-19T02:32:11;98692.94;;;0.05;84.27
50710;BME280;37033;49.994;21.992;2023-10-19T02:34:41;98690.11;;;0.05;84.38
50710;BME280;37033;49.994;21.992;2023-10-19T02:37:12;98687.80;;;0.05;84.40
50710;BME280;37033;49.994;21.992;2023-10-19T02:39:46;98684.21;;;0.04;84.30
50710;BME280;37033;49.994;21.992;2023-10-19T02:42:16;98683.77;;;0.03;84.33
50710;BME280;37033;49.994;21.992;2023-10-19T02:44:48;98678.36;;;0.02;84.21
50710;BME280;37033;49.994;21.992;2023-10-19T02:47:20;98677.04;;;0.01;84.07
50710;BME280;37033;49.994;21.992;2023-10-19T02:49:50;98673.21;;;0.00;84.15
50710;BME280;37033;49.994;21.992;2023-10-19T02:52:25;98672.68;;;0.00;84.39
50710;BME280;37033;49.994;21.992;2023-10-19T02:54:56;98671.20;;;-0.01;84.32
50710;BME280;37033;49.994;21.992;2023-10-19T02:57:29;98671.59;;;-0.01;84.24
50710;BME280;37033;49.994;21.992;2023-10-19T03:00:00;98663.20;;;-0.02;84.24
50710;BME280;37033;49.994;21.992;2023-10-19T03:02:37;98661.98;;;-0.03;84.57
50710;BME280;37033;49.994;21.992;2023-10-19T03:05:09;98656.34;;;-0.02;84.78
50710;BME280;37033;49.994;21.992;2023-10-19T03:07:44;98653.95;;;-0.01;84.81
50710;BME280;37033;49.994;21.992;2023-10-19T03:10:15;98647.67;;;-0.01;84.86
50710;BME280;37033;49.994;21.992;2023-10-19T03:12:53;98639.13;;;-0.01;84.76
50710;BME280;37033;49.994;21.992;2023-10-19T03:15:26;98637.55;;;-0.01;84.71
50710;BME280;37033;49.994;21.992;2023-10-19T03:18:00;98631.88;;;-0.01;84.74
50710;BME280;37033;49.994;21.992;2023-10-19T03:20:31;98626.57;;;0.00;84.82
50710;BME280;37033;49.994;21.992;2023-10-19T03:23:03;98622.41;;;0.01;84.65
50710;BME280;37033;49.994;21.992;2023-10-19T03:25:35;98623.24;;;0.03;84.95
50710;BME280;37033;49.994;21.992;2023-10-19T03:28:24;98624.13;;;0.06;85.06
50710;BME280;37033;49.994;21.992;2023-10-19T03:30:55;98620.88;;;0.09;85.21
50710;BME280;37033;49.994;21.992;2023-10-19T03:33:28;98615.45;;;0.11;85.35
50710;BME280;37033;49.994;21.992;2023-10-19T03:36:00;98612.41;;;0.10;85.35
50710;BME280;37033;49.994;21.992;2023-10-19T03:38:31;98611.66;;;0.10;85.52
50710;BME280;37033;49.994;21.992;2023-10-19T03:41:04;98611.48;;;0.08;85.48
50710;BME280;37033;49.994;21.992;2023-10-19T03:43:38;98607.65;;;0.07;85.56
50710;BME280;37033;49.994;21.992;2023-10-19T03:46:10;98605.56;;;0.07;85.49
50710;BME280;37033;49.994;21.992;2023-10-19T03:48:51;98602.84;;;0.06;85.62
50710;BME280;37033;49.994;21.992;2023-10-19T03:51:26;98605.31;;;0.06;85.60
50710;BME280;37033;49.994;21.992;2023-10-19T03:54:08;98602.27;;;0.08;85.82
50710;BME280;37033;49.994;21.992;2023-10-19T03:56:52;98602.34;;;0.10;86.07
50710;BME280;37033;49.994;21.992;2023-10-19T03:59:23;98592.52;;;0.11;86.21
50710;BME280;37033;49.994;21.992;2023-10-19T04:01:58;98589.67;;;0.14;86.24
50710;BME280;37033;49.994;21.992;2023-10-19T04:04:32;98583.52;;;0.16;86.38
50710;BME280;37033;49.994;21.992;2023-10-19T04:07:03;98581.64;;;0.18;86.53
50710;BME280;37033;49.994;21.992;2023-10-19T04:09:40;98573.61;;;0.20;86.34
50710;BME280;37033;49.994;21.992;2023-10-19T04:12:26;98576.57;;;0.23;86.31
50710;BME280;37033;49.994;21.992;2023-10-19T04:15:00;98571.92;;;0.23;86.12
50710;BME280;37033;49.994;21.992;2023-10-19T04:17:39;98571.39;;;0.23;86.03
50710;BME280;37033;49.994;21.992;2023-10-19T04:20:13;98573.16;;;0.23;85.81
50710;BME280;37033;49.994;21.992;2023-10-19T04:22:58;98565.84;;;0.22;85.91
50710;BME280;37033;49.994;21.992;2023-10-19T04:25:35;98564.43;;;0.21;85.95
50710;BME280;37033;49.994;21.992;2023-10-19T04:28:06;98556.58;;;0.20;85.96
50710;BME280;37033;49.994;21.992;2023-10-19T04:30:38;98549.36;;;0.19;85.90
50710;BME280;37033;49.994;21.992;2023-10-19T04:33:09;98541.26;;;0.17;85.87
50710;BME280;37033;49.994;21.992;2023-10-19T04:35:40;98538.82;;;0.15;85.84
50710;BME280;37033;49.994;21.992;2023-10-19T04:38:11;98528.39;;;0.13;85.75
50710;BME280;37033;49.994;21.992;2023-10-19T04:40:43;98521.69;;;0.11;85.75
50710;BME280;37033;49.994;21.992;2023-10-19T04:43:14;98516.23;;;0.09;85.66
50710;BME280;37033;49.994;21.992;2023-10-19T04:45:45;98510.64;;;0.08;85.82
50710;BME280;37033;49.994;21.992;2023-10-19T04:48:16;98504.77;;;0.07;85.75
50710;BME280;37033;49.994;21.992;2023-10-19T04:50:47;98505.33;;;0.05;85.70
50710;BME280;37033;49.994;21.992;2023-10-19T04:53:18;98504.04;;;0.04;85.64
50710;BME280;37033;49.994;21.992;2023-10-19T04:55:49;98509.33;;;0.03;85.82
50710;BME280;37033;49.994;21.992;2023-10-19T04:58:20;98504.36;;;0.02;85.81
50710;BME280;37033;49.994;21.992;2023-10-19T05:00:51;98505.09;;;0.02;86.02
50710;BME280;37033;49.994;21.992;2023-10-19T05:03:22;98501.06;;;0.01;85.86
50710;BME280;37033;49.994;21.992;2023-10-19T05:05:53;98498.45;;;-0.01;85.83
50710;BME280;37033;49.994;21.992;2023-10-19T05:08:24;98494.93;;;-0.01;85.89
50710;BME280;37033;49.994;21.992;2023-10-19T05:10:57;98501.74;;;-0.02;85.91
50710;BME280;37033;49.994;21.992;2023-10-19T05:13:29;98498.13;;;-0.03;85.95
50710;BME280;37033;49.994;21.992;2023-10-19T05:16:00;98491.17;;;-0.03;86.10
50710;BME280;37033;49.994;21.992;2023-10-19T05:18:32;98489.32;;;-0.02;86.35
50710;BME280;37033;49.994;21.992;2023-10-19T05:21:03;98490.70;;;-0.00;86.45
50710;BME280;37033;49.994;21.992;2023-10-19T05:23:35;98491.05;;;0.03;86.53
50710;BME280;37033;49.994;21.992;2023-10-19T05:26:06;98494.14;;;0.05;86.54
50710;BME280;37033;49.994;21.992;2023-10-19T05:28:36;98501.64;;;0.08;86.60
50710;BME280;37033;49.994;21.992;2023-10-19T05:31:07;98500.13;;;0.10;86.56
50710;BME280;37033;49.994;21.992;2023-10-19T05:33:38;98504.63;;;0.12;86.63
50710;BME280;37033;49.994;21.992;2023-10-19T05:36:09;98501.00;;;0.15;86.66
50710;BME280;37033;49.994;21.992;2023-10-19T05:38:40;98503.06;;;0.19;86.83
50710;BME280;37033;49.994;21.992;2023-10-19T05:41:11;98502.35;;;0.22;86.88
50710;BME280;37033;49.994;21.992;2023-10-19T05:43:41;98501.74;;;0.25;86.71
50710;BME280;37033;49.994;21.992;2023-10-19T05:46:12;98504.40;;;0.28;86.89
50710;BME280;37033;49.994;21.992;2023-10-19T05:48:46;98503.42;;;0.31;87.06
50710;BME280;37033;49.994;21.992;2023-10-19T05:51:17;98499.70;;;0.34;87.10
50710;BME280;37033;49.994;21.992;2023-10-19T05:53:47;98503.27;;;0.38;87.33
50710;BME280;37033;49.994;21.992;2023-10-19T05:56:20;98497.63;;;0.46;87.61
50710;BME280;37033;49.994;21.992;2023-10-19T05:58:50;98497.17;;;0.55;87.67
50710;BME280;37033;49.994;21.992;2023-10-19T06:01:23;98490.13;;;0.63;87.89
50710;BME280;37033;49.994;21.992;2023-10-19T06:03:55;98485.30;;;0.70;87.95
50710;BME280;37033;49.994;21.992;2023-10-19T06:06:26;98484.55;;;0.76;87.95
50710;BME280;37033;49.994;21.992;2023-10-19T06:08:57;98481.91;;;0.85;87.87
50710;BME280;37033;49.994;21.992;2023-10-19T06:11:31;98475.10;;;0.92;87.94
50710;BME280;37033;49.994;21.992;2023-10-19T06:14:02;98471.03;;;1.00;87.49
50710;BME280;37033;49.994;21.992;2023-10-19T06:16:36;98463.84;;;1.08;87.82
50710;BME280;37033;49.994;21.992;2023-10-19T06:19:07;98459.16;;;1.15;87.70
50710;BME280;37033;49.994;21.992;2023-10-19T06:21:38;98455.49;;;1.21;87.62
50710;BME280;37033;49.994;21.992;2023-10-19T06:24:10;98451.15;;;1.26;87.54
50710;BME280;37033;49.994;21.992;2023-10-19T06:26:44;98451.68;;;1.30;87.84
50710;BME280;37033;49.994;21.992;2023-10-19T06:29:15;98446.04;;;1.34;87.85
50710;BME280;37033;49.994;21.992;2023-10-19T06:31:46;98446.23;;;1.40;88.00
50710;BME280;37033;49.994;21.992;2023-10-19T06:34:17;98448.48;;;1.47;88.30
50710;BME280;37033;49.994;21.992;2023-10-19T06:36:48;98446.30;;;1.56;88.39
50710;BME280;37033;49.994;21.992;2023-10-19T06:39:20;98442.46;;;1.66;88.69
50710;BME280;37033;49.994;21.992;2023-10-19T06:41:51;98442.66;;;1.76;88.78
50710;BME280;37033;49.994;21.992;2023-10-19T06:44:21;98446.31;;;1.86;88.76
50710;BME280;37033;49.994;21.992;2023-10-19T06:46:52;98438.54;;;1.96;89.03
50710;BME280;37033;49.994;21.992;2023-10-19T06:49:23;98435.23;;;2.06;88.98
50710;BME280;37033;49.994;21.992;2023-10-19T06:51:55;98435.27;;;2.15;89.14
50710;BME280;37033;49.994;21.992;2023-10-19T06:54:26;98438.56;;;2.25;89.17
50710;BME280;37033;49.994;21.992;2023-10-19T06:56:58;98433.48;;;2.34;89.27
50710;BME280;37033;49.994;21.992;2023-10-19T06:59:32;98433.81;;;2.47;89.33
50710;BME280;37033;49.994;21.992;2023-10-19T07:02:03;98426.61;;;2.62;89.39
50710;BME280;37033;49.994;21.992;2023-10-19T07:04:37;98422.89;;;2.78;89.27
50710;BME280;37033;49.994;21.992;2023-10-19T07:07:07;98411.11;;;2.93;89.45
50710;BME280;37033;49.994;21.992;2023-10-19T07:09:38;98402.23;;;3.08;89.36
50710;BME280;37033;49.994;21.992;2023-10-19T07:12:10;98398.93;;;3.24;89.41
50710;BME280;37033;49.994;21.992;2023-10-19T07:14:41;98394.23;;;3.37;89.61
50710;BME280;37033;49.994;21.992;2023-10-19T07:17:12;98390.05;;;3.49;89.35
50710;BME280;37033;49.994;21.992;2023-10-19T07:19:45;98380.52;;;3.60;89.19
50710;BME280;37033;49.994;21.992;2023-10-19T07:22:18;98379.05;;;3.70;89.34
50710;BME280;37033;49.994;21.992;2023-10-19T07:24:52;98373.83;;;3.82;89.12
50710;BME280;37033;49.994;21.992;2023-10-19T07:27:24;98377.05;;;3.93;89.21
50710;BME280;37033;49.994;21.992;2023-10-19T07:29:57;98380.30;;;4.03;89.15
50710;BME280;37033;49.994;21.992;2023-10-19T07:32:29;98379.05;;;4.13;89.07
50710;BME280;37033;49.994;21.992;2023-10-19T07:35:00;98370.11;;;4.24;89.18
50710;BME280;37033;49.994;21.992;2023-10-19T07:37:31;98364.48;;;4.35;89.02
50710;BME280;37033;49.994;21.992;2023-10-19T07:40:03;98361.72;;;4.46;89.09
50710;BME280;37033;49.994;21.992;2023-10-19T07:42:34;98364.26;;;4.60;89.06
50710;BME280;37033;49.994;21.992;2023-10-19T07:45:07;98357.92;;;4.73;89.04
50710;BME280;37033;49.994;21.992;2023-10-19T07:47:41;98350.63;;;4.88;88.82
50710;BME280;37033;49.994;21.992;2023-10-19T07:50:13;98341.17;;;5.02;88.71
50710;BME280;37033;49.994;21.992;2023-10-19T07:52:47;98336.75;;;5.20;88.73
50710;BME280;37033;49.994;21.992;2023-10-19T07:55:20;98335.55;;;5.37;88.73
50710;BME280;37033;49.994;21.992;2023-10-19T07:57:52;98335.88;;;5.53;88.74
50710;BME280;37033;49.994;21.992;2023-10-19T08:00:23;98329.20;;;5.70;88.66
50710;BME280;37033;49.994;21.992;2023-10-19T08:02:54;98325.73;;;5.87;88.56
50710;BME280;37033;49.994;21.992;2023-10-19T08:05:25;98326.17;;;6.02;88.45
50710;BME280;37033;49.994;21.992;2023-10-19T08:07:57;98328.72;;;6.16;88.14
50710;BME280;37033;49.994;21.992;2023-10-19T08:10:30;98324.96;;;6.27;87.94
50710;BME280;37033;49.994;21.992;2023-10-19T08:13:01;98324.98;;;6.39;87.75
50710;BME280;37033;49.994;21.992;2023-10-19T08:15:32;98323.04;;;6.47;87.57
50710;BME280;37033;49.994;21.992;2023-10-19T08:18:04;98322.73;;;6.55;87.52
50710;BME280;37033;49.994;21.992;2023-10-19T08:20:35;98317.97;;;6.66;87.37
50710;BME280;37033;49.994;21.992;2023-10-19T08:23:06;98311.20;;;6.80;87.36
50710;BME280;37033;49.994;21.992;2023-10-19T08:25:37;98308.11;;;7.02;86.89
50710;BME280;37033;49.994;21.992;2023-10-19T08:28:08;98305.02;;;7.28;86.50
50710;BME280;37033;49.994;21.992;2023-10-19T08:30:43;98303.75;;;7.56;85.72
50710;BME280;37033;49.994;21.992;2023-10-19T08:33:24;98298.98;;;7.87;84.91
50710;BME280;37033;49.994;21.992;2023-10-19T08:35:56;98295.10;;;8.10;83.98
50710;BME280;37033;49.994;21.992;2023-10-19T08:38:27;98293.86;;;8.32;82.91
50710;BME280;37033;49.994;21.992;2023-10-19T08:40:58;98287.06;;;8.58;81.49
50710;BME280;37033;49.994;21.992;2023-10-19T08:43:29;98281.41;;;8.79;80.82
50710;BME280;37033;49.994;21.992;2023-10-19T08:46:03;98273.31;;;8.96;79.62
50710;BME280;37033;49.994;21.992;2023-10-19T08:48:36;98273.68;;;9.15;78.57
50710;BME280;37033;49.994;21.992;2023-10-19T08:51:10;98270.56;;;9.31;77.88
50710;BME280;37033;49.994;21.992;2023-10-19T08:53:41;98266.52;;;9.43;77.03
50710;BME280;37033;49.994;21.992;2023-10-19T08:56:15;98257.96;;;9.57;76.38
50710;BME280;37033;49.994;21.992;2023-10-19T08:58:47;98256.35;;;9.70;76.16
50710;BME280;37033;49.994;21.992;2023-10-19T09:01:19;98257.98;;;9.81;75.05
50710;BME280;37033;49.994;21.992;2023-10-19T09:03:53;98258.48;;;9.91;73.92
50710;BME280;37033;49.994;21.992;2023-10-19T09:06:27;98258.52;;;10.03;74.28
50710;BME280;37033;49.994;21.992;2023-10-19T09:08:58;98263.34;;;10.15;73.56
50710;BME280;37033;49.994;21.992;2023-10-19T09:11:29;98257.78;;;10.27;73.23
50710;BME280;37033;49.994;21.992;2023-10-19T09:14:00;98250.61;;;10.38;73.03
50710;BME280;37033;49.994;21.992;2023-10-19T09:16:33;98238.52;;;10.48;72.36
50710;BME280;37033;49.994;21.992;2023-10-19T09:19:06;98230.21;;;10.54;72.38
50710;BME280;37033;49.994;21.992;2023-10-19T09:21:38;98229.90;;;10.60;71.95
50710;BME280;37033;49.994;21.992;2023-10-19T09:24:10;98229.58;;;10.70;71.49
50710;BME280;37033;49.994;21.992;2023-10-19T09:26:41;98215.34;;;10.79;71.13
50710;BME280;37033;49.994;21.992;2023-10-19T09:29:14;98210.11;;;10.90;70.15
50710;BME280;37033;49.994;21.992;2023-10-19T09:31:50;98213.70;;;11.00;69.42
50710;BME280;37033;49.994;21.992;2023-10-19T09:34:21;98213.15;;;11.09;69.63
50710;BME280;37033;49.994;21.992;2023-10-19T09:36:55;98205.16;;;11.17;69.69
50710;BME280;37033;49.994;21.992;2023-10-19T09:39:26;98205.73;;;11.27;70.19
50710;BME280;37033;49.994;21.992;2023-10-19T09:42:07;98206.36;;;11.39;70.50
50710;BME280;37033;49.994;21.992;2023-10-19T09:44:43;98202.95;;;11.49;69.73
50710;BME280;37033;49.994;21.992;2023-10-19T09:47:17;98201.96;;;11.54;69.71
50710;BME280;37033;49.994;21.992;2023-10-19T09:49:53;98198.73;;;11.62;69.19
50710;BME280;37033;49.994;21.992;2023-10-19T09:52:25;98186.67;;;11.69;68.33
50710;BME280;37033;49.994;21.992;2023-10-19T09:55:09;98177.28;;;11.74;68.39
50710;BME280;37033;49.994;21.992;2023-10-19T09:57:48;98175.51;;;11.81;68.48
50710;BME280;37033;49.994;21.992;2023-10-19T10:00:21;98169.33;;;11.87;68.21
50710;BME280;37033;49.994;21.992;2023-10-19T10:02:54;98170.80;;;11.94;67.44
50710;BME280;37033;49.994;21.992;2023-10-19T10:05:47;98162.16;;;11.99;67.92
50710;BME280;37033;49.994;21.992;2023-10-19T10:08:34;98154.77;;;12.07;67.44
50710;BME280;37033;49.994;21.992;2023-10-19T10:11:23;98152.52;;;12.10;67.42
50710;BME280;37033;49.994;21.992;2023-10-19T10:13:56;98142.64;;;12.11;67.46
50710;BME280;37033;49.994;21.992;2023-10-19T10:16:28;98140.73;;;12.13;67.48
50710;BME280;37033;49.994;21.992;2023-10-19T10:19:00;98138.00;;;12.14;67.95
50710;BME280;37033;49.994;21.992;2023-10-19T10:21:31;98131.42;;;12.18;67.67
50710;BME280;37033;49.994;21.992;2023-10-19T10:24:05;98139.09;;;12.21;67.85
50710;BME280;37033;49.994;21.992;2023-10-19T10:26:59;98128.84;;;12.30;67.76
50710;BME280;37033;49.994;21.992;2023-10-19T10:29:32;98123.61;;;12.37;67.21
50710;BME280;37033;49.994;21.992;2023-10-19T10:32:03;98116.20;;;12.42;67.15
50710;BME280;37033;49.994;21.992;2023-10-19T10:34:47;98117.23;;;12.51;67.15
50710;BME280;37033;49.994;21.992;2023-10-19T10:37:18;98122.23;;;12.60;67.11
50710;BME280;37033;49.994;21.992;2023-10-19T10:39:50;98118.31;;;12.71;66.95
50710;BME280;37033;49.994;21.992;2023-10-19T10:42:29;98116.55;;;12.79;67.05
50710;BME280;37033;49.994;21.992;2023-10-19T10:45:00;98127.98;;;12.88;66.98
50710;BME280;37033;49.994;21.992;2023-10-19T10:47:34;98119.59;;;12.92;66.99
50710;BME280;37033;49.994;21.992;2023-10-19T10:50:07;98107.27;;;12.97;67.15
50710;BME280;37033;49.994;21.992;2023-10-19T10:52:39;98108.73;;;12.93;66.47
50710;BME280;37033;49.994;21.992;2023-10-19T10:55:12;98101.55;;;12.79;66.01
50710;BME280;37033;49.994;21.992;2023-10-19T10:57:44;98093.39;;;12.65;66.68
50710;BME280;37033;49.994;21.992;2023-10-19T11:00:16;98083.67;;;12.55;66.76
50710;BME280;37033;49.994;21.992;2023-10-19T11:02:59;98077.55;;;12.44;67.07
50710;BME280;37033;49.994;21.992;2023-10-19T11:05:30;98074.55;;;12.33;67.38
50710;BME280;37033;49.994;21.992;2023-10-19T11:08:07;98083.25;;;12.26;67.66
50710;BME280;37033;49.994;21.992;2023-10-19T11:10:39;98080.41;;;12.20;68.10
50710;BME280;37033;49.994;21.992;2023-10-19T11:13:12;98080.45;;;12.15;68.44
50710;BME280;37033;49.994;21.992;2023-10-19T11:15:50;98071.99;;;12.10;68.19
50710;BME280;37033;49.994;21.992;2023-10-19T11:18:32;98060.71;;;12.03;67.87
50710;BME280;37033;49.994;21.992;2023-10-19T11:21:08;98056.59;;;11.92;68.18
50710;BME280;37033;49.994;21.992;2023-10-19T11:23:42;98055.35;;;11.86;68.53
50710;BME280;37033;49.994;21.992;2023-10-19T11:26:15;98055.25;;;11.84;69.01
50710;BME280;37033;49.994;21.992;2023-10-19T11:28:46;98058.29;;;11.87;69.25
50710;BME280;37033;49.994;21.992;2023-10-19T11:31:21;98061.02;;;11.88;69.21
50710;BME280;37033;49.994;21.992;2023-10-19T11:33:53;98065.54;;;11.87;69.22
50710;BME280;37033;49.994;21.992;2023-10-19T11:36:25;98070.34;;;11.85;69.28
50710;BME280;37033;49.994;21.992;2023-10-19T11:38:56;98061.33;;;11.81;69.36
50710;BME280;37033;49.994;21.992;2023-10-19T11:41:27;98056.05;;;11.78;69.44
50710;BME280;37033;49.994;21.992;2023-10-19T11:43:57;98052.44;;;11.73;69.83
50710;BME280;37033;49.994;21.992;2023-10-19T11:46:29;98058.46;;;11.68;69.96
50710;BME280;37033;49.994;21.992;2023-10-19T11:49:00;98057.02;;;11.64;70.16
50710;BME280;37033;49.994;21.992;2023-10-19T11:51:32;98050.00;;;11.60;70.79
50710;BME280;37033;49.994;21.992;2023-10-19T11:54:05;98041.89;;;11.61;70.97
50710;BME280;37033;49.994;21.992;2023-10-19T11:56:36;98037.48;;;11.60;71.14
50710;BME280;37033;49.994;21.992;2023-10-19T11:59:07;98040.09;;;11.61;71.28
50710;BME280;37033;49.994;21.992;2023-10-19T12:01:38;98045.60;;;11.61;71.37
50710;BME280;37033;49.994;21.992;2023-10-19T12:04:09;98047.30;;;11.57;71.30
50710;BME280;37033;49.994;21.992;2023-10-19T12:06:40;98041.39;;;11.53;71.37
50710;BME280;37033;49.994;21.992;2023-10-19T12:09:11;98039.08;;;11.49;71.52
50710;BME280;37033;49.994;21.992;2023-10-19T12:11:45;98036.22;;;11.45;71.79
50710;BME280;37033;49.994;21.992;2023-10-19T12:14:17;98025.34;;;11.43;72.03
50710;BME280;37033;49.994;21.992;2023-10-19T12:16:47;98019.27;;;11.39;72.15
50710;BME280;37033;49.994;21.992;2023-10-19T12:19:18;98021.25;;;11.35;72.26
50710;BME280;37033;49.994;21.992;2023-10-19T12:21:49;98014.85;;;11.33;72.32
50710;BME280;37033;49.994;21.992;2023-10-19T12:24:21;98009.74;;;11.29;72.74
50710;BME280;37033;49.994;21.992;2023-10-19T12:26:52;98006.05;;;11.27;72.79
50710;BME280;37033;49.994;21.992;2023-10-19T12:29:23;98003.24;;;11.24;73.05
50710;BME280;37033;49.994;21.992;2023-10-19T12:31:55;97996.51;;;11.19;73.09
50710;BME280;37033;49.994;21.992;2023-10-19T12:34:25;97988.98;;;11.15;73.32
50710;BME280;37033;49.994;21.992;2023-10-19T12:36:59;97981.76;;;11.13;73.54
50710;BME280;37033;49.994;21.992;2023-10-19T12:39:31;97976.16;;;11.10;73.51
50710;BME280;37033;49.994;21.992;2023-10-19T12:42:10;97962.63;;;11.10;73.77
50710;BME280;37033;49.994;21.992;2023-10-19T12:44:43;97957.26;;;11.08;73.99
50710;BME280;37033;49.994;21.992;2023-10-19T12:47:14;97952.21;;;11.05;74.19
50710;BME280;37033;49.994;21.992;2023-10-19T12:49:46;97945.74;;;11.03;74.18
50710;BME280;37033;49.994;21.992;2023-10-19T12:52:17;97938.04;;;10.99;74.43
50710;BME280;37033;49.994;21.992;2023-10-19T12:54:48;97926.85;;;10.98;74.61
50710;BME280;37033;49.994;21.992;2023-10-19T12:57:20;97924.73;;;10.97;74.91
50710;BME280;37033;49.994;21.992;2023-10-19T12:59:53;97924.58;;;10.96;75.00
50710;BME280;37033;49.994;21.992;2023-10-19T13:02:23;97922.46;;;10.94;75.21
50710;BME280;37033;49.994;21.992;2023-10-19T13:04:55;97926.11;;;10.93;75.32
50710;BME280;37033;49.994;21.992;2023-10-19T13:07:28;97929.70;;;10.93;75.53
50710;BME280;37033;49.994;21.992;2023-10-19T13:10:00;97927.59;;;10.92;75.81
50710;BME280;37033;49.994;21.992;2023-10-19T13:12:31;97932.44;;;10.91;75.87
50710;BME280;37033;49.994;21.992;2023-10-19T13:15:02;97929.60;;;10.91;76.05
50710;BME280;37033;49.994;21.992;2023-10-19T13:17:36;97921.52;;;10.90;75.98
50710;BME280;37033;49.994;21.992;2023-10-19T13:20:10;97917.77;;;10.88;76.23
50710;BME280;37033;49.994;21.992;2023-10-19T13:22:47;97911.73;;;10.87;76.27
50710;BME280;37033;49.994;21.992;2023-10-19T13:25:18;97909.33;;;10.89;76.47